Alderson, West Virginia
Current Conditions -  °F | °C
As of 12:55 AM on Thursday 29 Jan 2015 (Local Time) from KLWB Reporting Station
Clear Clear  
Wind Chill: 15°   Ceiling: Unl
Heat Index: 21°   Visibility: 10mi
Dew Point: 15°   Wind: 5mph
Humidity: 78%   Direction: 20°NNE
Pressure: 30.25"   Gusts: NA
Location:  37.73°N, 80.64°W
Report Text: KLWB 290555Z AUTO 02004KT 10SM CLR M06/M09 A3025 RMK AO2 T10611093 11020 21070
Loading
Personal Weather Stations






























Interactive Weather Map New forecast layout! Learn more

10-Day Weather Forecast

Advertisements
Track Severe Weather on mobile